createdAt,value
2017-07-06T00:00:39.415Z,15.90
2017-07-06T00:03:08.438Z,15.90
2017-07-06T00:05:37.438Z,15.90
2017-07-06T00:08:07.330Z,15.90
2017-07-06T00:10:36.326Z,15.80
2017-07-06T00:13:07.145Z,15.80
2017-07-06T00:15:36.130Z,15.70
2017-07-06T00:18:05.107Z,15.60
2017-07-06T00:20:34.160Z,15.60
2017-07-06T00:23:03.553Z,15.50
2017-07-06T00:25:32.513Z,15.50
2017-07-06T00:29:20.793Z,15.50
2017-07-06T00:31:50.021Z,15.50
2017-07-06T00:34:18.981Z,15.40
2017-07-06T00:36:47.938Z,15.40
2017-07-06T00:39:16.877Z,15.20
2017-07-06T00:41:45.858Z,15.10
2017-07-06T00:44:14.803Z,15.10
2017-07-06T00:46:43.789Z,15.10
2017-07-06T00:49:13.210Z,15.10
2017-07-06T00:51:42.194Z,15.10
2017-07-06T00:54:11.160Z,15.10
2017-07-06T00:56:40.130Z,15.00
2017-07-06T00:59:09.067Z,14.90
2017-07-06T01:01:38.286Z,14.90
2017-07-06T01:04:07.248Z,14.90
2017-07-06T01:06:36.209Z,14.90
2017-07-06T01:09:05.386Z,14.90
2017-07-06T01:11:34.383Z,15.00
2017-07-06T01:14:03.461Z,14.90
2017-07-06T01:16:32.734Z,15.00
2017-07-06T01:19:01.733Z,14.90
2017-07-06T01:21:30.843Z,14.90
2017-07-06T01:23:59.904Z,14.90
2017-07-06T01:26:29.216Z,14.90
2017-07-06T01:28:58.177Z,14.70
2017-07-06T01:31:27.182Z,14.70
2017-07-06T01:33:56.153Z,14.70
2017-07-06T01:36:25.128Z,14.60
2017-07-06T01:38:54.170Z,14.50
2017-07-06T01:41:23.153Z,14.50
2017-07-06T01:43:53.552Z,14.50
2017-07-06T01:46:22.597Z,14.60
2017-07-06T01:48:51.568Z,14.40
2017-07-06T01:51:21.563Z,14.40
2017-07-06T01:53:50.625Z,14.40
2017-07-06T01:56:19.706Z,14.40
2017-07-06T01:58:48.827Z,14.40
2017-07-06T02:01:17.865Z,14.40
2017-07-06T02:03:46.844Z,14.30
2017-07-06T02:06:15.799Z,14.30
2017-07-06T02:08:44.802Z,14.20
2017-07-06T02:11:13.808Z,14.20
2017-07-06T02:13:42.750Z,14.20
2017-07-06T02:16:11.749Z,14.20
2017-07-06T02:18:40.686Z,14.00
2017-07-06T02:21:09.674Z,14.00
2017-07-06T02:23:38.837Z,13.90
2017-07-06T03:09:49.810Z,13.80
2017-07-06T03:12:18.774Z,13.70
2017-07-06T03:14:47.827Z,13.80
2017-07-06T03:17:16.797Z,13.80
2017-07-06T03:19:45.804Z,13.80
2017-07-06T03:22:14.722Z,13.70
2017-07-06T03:24:43.822Z,13.70
2017-07-06T03:27:12.933Z,13.70
2017-07-06T03:29:41.917Z,13.60
2017-07-06T03:32:11.178Z,13.60
2017-07-06T03:34:41.681Z,13.60
2017-07-06T03:37:10.642Z,13.60
2017-07-06T03:39:40.477Z,13.70
2017-07-06T03:42:09.515Z,13.70
2017-07-06T03:44:38.477Z,13.80
2017-07-06T03:47:08.122Z,13.80
2017-07-06T03:49:37.082Z,13.90
2017-07-06T03:52:06.145Z,13.90
2017-07-06T03:54:35.115Z,13.90
2017-07-06T03:57:04.069Z,13.90
2017-07-06T03:59:33.066Z,13.90
2017-07-06T04:02:02.265Z,13.90
2017-07-06T04:04:33.600Z,13.90
2017-07-06T04:07:02.613Z,13.90
2017-07-06T04:09:31.568Z,14.00
2017-07-06T04:12:00.603Z,14.10
2017-07-06T04:14:29.563Z,14.20
2017-07-06T04:16:58.538Z,14.20
2017-07-06T04:19:27.536Z,14.30
2017-07-06T04:21:56.477Z,14.40
2017-07-06T04:24:25.467Z,14.50
2017-07-06T04:26:54.852Z,14.60
2017-07-06T04:29:23.845Z,14.70
2017-07-06T04:31:52.798Z,14.80
2017-07-06T04:34:21.781Z,14.90
2017-07-06T04:36:50.753Z,15.00
2017-07-06T04:39:19.754Z,15.20
2017-07-06T04:41:48.716Z,15.20
2017-07-06T04:44:17.708Z,15.40
2017-07-06T04:46:46.682Z,15.60
2017-07-06T04:49:15.713Z,15.80
2017-07-06T04:51:44.734Z,16.10
2017-07-06T04:54:13.732Z,16.30
2017-07-06T04:56:42.741Z,16.70
2017-07-06T04:59:11.750Z,16.80
2017-07-06T05:01:40.939Z,16.90
2017-07-06T05:04:09.901Z,17.30
2017-07-06T05:06:38.882Z,17.50
2017-07-06T05:09:07.858Z,17.60
2017-07-06T05:11:36.810Z,17.80
2017-07-06T05:14:05.810Z,18.00
2017-07-06T05:16:34.858Z,18.30
2017-07-06T05:19:03.846Z,18.40
2017-07-06T05:21:32.871Z,18.90
2017-07-06T05:24:01.877Z,19.00
2017-07-06T05:26:30.837Z,19.40
2017-07-06T05:28:59.822Z,19.30
2017-07-06T05:31:28.776Z,19.90
2017-07-06T05:33:57.737Z,20.30
2017-07-06T05:36:26.813Z,20.80
2017-07-06T05:38:55.869Z,21.00
2017-07-06T05:41:24.912Z,21.10
2017-07-06T05:43:54.001Z,21.00
2017-07-06T05:46:23.008Z,21.80
2017-07-06T05:48:52.351Z,21.70
2017-07-06T05:51:21.408Z,22.10
2017-07-06T05:53:50.381Z,22.60
2017-07-06T05:56:19.363Z,23.00
2017-07-06T05:58:48.475Z,23.10
2017-07-06T06:01:17.493Z,23.10
2017-07-06T06:03:46.513Z,23.00
2017-07-06T06:06:15.481Z,22.70
2017-07-06T06:08:44.531Z,22.70
2017-07-06T06:11:13.570Z,22.30
2017-07-06T06:14:44.975Z,22.20
2017-07-06T06:17:14.032Z,22.00
2017-07-06T06:19:43.087Z,21.80
2017-07-06T06:22:12.120Z,21.70
2017-07-06T06:24:41.110Z,21.70
2017-07-06T06:27:10.099Z,21.70
2017-07-06T06:29:39.153Z,22.20
2017-07-06T06:32:08.163Z,22.40
2017-07-06T06:34:37.147Z,22.40
2017-07-06T06:37:06.122Z,22.80
2017-07-06T06:39:35.166Z,23.00
2017-07-06T06:42:05.164Z,23.50
2017-07-06T06:44:34.187Z,24.20
2017-07-06T06:47:03.618Z,24.90
2017-07-06T06:49:32.610Z,24.30
2017-07-06T06:52:01.598Z,24.60
2017-07-06T06:54:30.568Z,24.80
2017-07-06T06:56:59.598Z,25.80
2017-07-06T06:59:28.651Z,25.80
2017-07-06T07:01:57.627Z,26.20
2017-07-06T07:04:56.945Z,27.10
2017-07-06T07:07:26.338Z,27.80
2017-07-06T07:09:55.371Z,27.40
2017-07-06T07:12:24.447Z,27.60
2017-07-06T07:14:53.468Z,27.80
2017-07-06T07:17:24.069Z,28.20
2017-07-06T07:19:53.047Z,28.80
2017-07-06T07:22:21.989Z,29.30
2017-07-06T07:24:50.978Z,28.40
2017-07-06T07:27:20.039Z,28.40
2017-07-06T07:29:49.057Z,29.00
2017-07-06T07:32:18.077Z,30.20
2017-07-06T07:34:47.388Z,30.10
2017-07-06T07:37:16.517Z,31.20
2017-07-06T07:39:45.515Z,32.00
2017-07-06T07:42:14.649Z,31.20
2017-07-06T07:44:43.651Z,31.60
2017-07-06T07:47:12.747Z,31.70
2017-07-06T07:49:41.729Z,32.40
2017-07-06T07:52:10.699Z,32.70
2017-07-06T07:54:39.719Z,32.60
2017-07-06T07:57:08.757Z,32.50
2017-07-06T07:59:37.754Z,31.50
2017-07-06T08:02:06.781Z,31.60
2017-07-06T08:04:35.790Z,31.50
2017-07-06T08:07:04.829Z,31.10
2017-07-06T08:09:33.819Z,31.20
2017-07-06T08:12:02.784Z,31.50
2017-07-06T08:14:32.095Z,31.80
2017-07-06T08:17:01.259Z,31.60
2017-07-06T08:19:30.638Z,31.30
2017-07-06T08:21:59.698Z,32.00
2017-07-06T08:24:28.699Z,32.60
2017-07-06T08:26:57.814Z,33.20
2017-07-06T08:29:26.908Z,32.50
2017-07-06T08:31:55.952Z,31.60
2017-07-06T08:34:24.979Z,32.10
2017-07-06T08:36:53.973Z,32.70
2017-07-06T08:39:22.914Z,33.00
2017-07-06T08:41:51.881Z,33.60
2017-07-06T08:44:20.891Z,32.80
2017-07-06T08:46:49.910Z,33.70
2017-07-06T08:49:18.945Z,33.50
2017-07-06T08:51:47.997Z,34.60
2017-07-06T08:54:17.010Z,34.80
2017-07-06T08:56:46.009Z,35.10
2017-07-06T08:59:15.279Z,34.50
2017-07-06T09:01:44.278Z,35.20
2017-07-06T09:04:15.727Z,34.60
2017-07-06T09:06:44.750Z,34.60
2017-07-06T09:09:13.834Z,35.00
2017-07-06T09:11:42.914Z,34.80
2017-07-06T09:17:11.186Z,34.80
2017-07-06T09:19:40.274Z,36.50
2017-07-06T09:22:09.316Z,37.50
2017-07-06T09:24:38.375Z,37.50
2017-07-06T09:27:07.768Z,37.10
2017-07-06T09:29:36.860Z,38.00
2017-07-06T09:32:05.894Z,37.80
2017-07-06T09:34:34.865Z,38.10
2017-07-06T09:37:03.924Z,38.00
2017-07-06T09:39:32.906Z,37.60
2017-07-06T09:42:01.929Z,37.20
2017-07-06T09:44:30.957Z,37.10
2017-07-06T09:47:00.057Z,36.60
2017-07-06T09:50:31.410Z,35.70
2017-07-06T09:53:00.704Z,35.40
2017-07-06T09:55:29.785Z,35.70
2017-07-06T09:58:00.238Z,35.80
2017-07-06T10:00:29.443Z,36.60
2017-07-06T10:02:58.449Z,36.10
2017-07-06T10:05:27.498Z,34.70
2017-07-06T10:07:56.529Z,34.10
2017-07-06T10:10:25.638Z,32.80
2017-07-06T10:12:54.646Z,32.10
2017-07-06T10:15:23.626Z,32.00
2017-07-06T10:17:53.144Z,32.20
2017-07-06T10:20:22.195Z,33.70
2017-07-06T10:22:51.146Z,32.90
2017-07-06T10:25:20.227Z,32.10
2017-07-06T10:27:49.243Z,32.50
2017-07-06T10:30:18.327Z,33.20
2017-07-06T10:34:06.680Z,33.70
2017-07-06T10:40:07.295Z,34.30
2017-07-06T10:42:36.386Z,33.70
2017-07-06T10:45:05.438Z,33.10
2017-07-06T10:47:34.422Z,33.30
2017-07-06T10:50:03.445Z,32.90
2017-07-06T10:52:32.421Z,33.80
2017-07-06T10:55:01.443Z,34.60
2017-07-06T10:57:30.586Z,34.70
2017-07-06T10:59:59.585Z,35.20
2017-07-06T11:02:28.696Z,35.50
2017-07-06T11:04:57.788Z,35.60
2017-07-06T11:07:26.808Z,35.70
2017-07-06T11:09:55.998Z,35.50
2017-07-06T11:12:25.114Z,35.00
2017-07-06T11:14:54.189Z,34.50
2017-07-06T11:17:23.225Z,33.50
2017-07-06T11:20:22.656Z,34.50
2017-07-06T11:22:51.739Z,34.80
2017-07-06T11:25:20.817Z,34.10
2017-07-06T11:27:49.861Z,33.00
2017-07-06T11:30:18.932Z,33.60
2017-07-06T11:32:48.013Z,33.80
2017-07-06T11:35:17.159Z,34.40
2017-07-06T11:37:46.414Z,34.50
2017-07-06T11:40:19.219Z,33.80
2017-07-06T11:42:48.374Z,34.00
2017-07-06T11:45:17.491Z,34.10
2017-07-06T11:47:46.778Z,33.90
2017-07-06T11:50:15.897Z,33.50
2017-07-06T11:52:44.929Z,33.90
2017-07-06T11:55:14.039Z,34.40
2017-07-06T11:57:43.412Z,34.10
2017-07-06T12:00:12.422Z,34.00
2017-07-06T12:02:41.461Z,34.10
2017-07-06T12:05:10.720Z,33.90
2017-07-06T12:07:39.721Z,33.80
2017-07-06T12:10:08.793Z,33.40
2017-07-06T12:12:37.854Z,33.20
2017-07-06T12:15:06.909Z,33.30
2017-07-06T12:17:36.088Z,32.90
2017-07-06T12:20:06.018Z,32.40
2017-07-06T12:22:35.070Z,32.70
2017-07-06T12:25:04.065Z,32.90
2017-07-06T12:27:33.086Z,31.90
2017-07-06T12:30:02.113Z,31.10
2017-07-06T12:32:31.157Z,30.90
2017-07-06T12:35:00.161Z,31.10
2017-07-06T12:37:29.266Z,30.90
2017-07-06T12:39:58.291Z,30.50
2017-07-06T12:42:27.342Z,30.80
2017-07-06T12:44:56.375Z,31.50
2017-07-06T12:47:25.481Z,31.70
2017-07-06T12:49:54.505Z,31.00
2017-07-06T12:55:55.042Z,30.10
2017-07-06T12:58:24.079Z,29.60
2017-07-06T13:00:53.128Z,29.50
2017-07-06T13:03:22.434Z,29.80
2017-07-06T13:05:51.948Z,29.70
2017-07-06T13:08:20.945Z,29.80
2017-07-06T13:10:50.096Z,30.00
2017-07-06T13:13:19.297Z,29.50
2017-07-06T13:15:48.321Z,29.70
2017-07-06T13:18:17.526Z,29.70
2017-07-06T13:20:47.037Z,30.00
2017-07-06T13:23:16.149Z,30.40
2017-07-06T13:25:45.239Z,30.50
2017-07-06T13:28:14.887Z,30.70
2017-07-06T13:30:43.923Z,31.00
2017-07-06T13:33:13.462Z,30.90
2017-07-06T13:35:42.575Z,30.80
2017-07-06T13:38:11.682Z,30.90
2017-07-06T13:40:40.733Z,30.70
2017-07-06T13:43:09.812Z,30.00
2017-07-06T13:45:38.803Z,29.50
2017-07-06T13:48:07.944Z,28.90
2017-07-06T13:50:37.207Z,28.60
2017-07-06T13:53:06.414Z,28.40
2017-07-06T13:55:35.585Z,28.30
2017-07-06T13:58:04.673Z,28.10
2017-07-06T14:00:33.739Z,28.10
2017-07-06T14:03:02.749Z,28.20
2017-07-06T14:05:31.809Z,28.90
2017-07-06T14:08:01.185Z,29.50
2017-07-06T14:10:30.240Z,29.80
2017-07-06T14:12:59.308Z,29.90
2017-07-06T14:15:28.347Z,29.90
2017-07-06T14:17:57.462Z,29.50
2017-07-06T14:20:27.132Z,29.30
2017-07-06T14:22:56.150Z,28.60
2017-07-06T14:25:25.528Z,28.50
2017-07-06T14:27:54.542Z,28.50
2017-07-06T14:30:23.550Z,28.70
2017-07-06T14:32:52.565Z,28.80
2017-07-06T14:35:21.559Z,28.60
2017-07-06T14:37:50.581Z,28.50
2017-07-06T14:40:19.872Z,28.30
2017-07-06T14:42:48.849Z,28.40
2017-07-06T14:45:17.894Z,28.30
2017-07-06T14:47:46.943Z,28.20
2017-07-06T14:50:15.919Z,28.30
2017-07-06T14:52:45.921Z,28.40
2017-07-06T14:56:17.933Z,28.60
2017-07-06T14:58:46.960Z,28.70
2017-07-06T15:01:15.991Z,28.80
2017-07-06T15:03:45.046Z,28.70
2017-07-06T15:06:14.115Z,28.60
2017-07-06T15:08:43.230Z,28.70
2017-07-06T15:11:12.543Z,28.80
2017-07-06T15:13:41.630Z,29.10
2017-07-06T15:16:10.686Z,29.20
2017-07-06T15:18:40.565Z,28.90
2017-07-06T15:21:09.645Z,28.90
2017-07-06T15:23:38.729Z,29.00
2017-07-06T15:26:07.835Z,28.90
2017-07-06T15:28:36.902Z,28.80
2017-07-06T15:31:06.127Z,28.80
2017-07-06T15:33:35.163Z,28.60
2017-07-06T15:36:04.261Z,28.40
2017-07-06T15:38:33.286Z,28.50
2017-07-06T15:41:02.336Z,28.30
2017-07-06T15:43:31.426Z,28.30
2017-07-06T15:46:00.576Z,28.00
2017-07-06T15:48:29.631Z,27.80
2017-07-06T15:50:58.711Z,27.90
2017-07-06T15:53:27.809Z,28.00
2017-07-06T15:55:56.847Z,28.00
2017-07-06T15:58:25.967Z,27.90
2017-07-06T16:00:55.001Z,27.90
2017-07-06T16:03:24.044Z,27.90
2017-07-06T16:05:53.088Z,27.90
2017-07-06T16:08:22.153Z,27.90
2017-07-06T16:10:58.169Z,27.80
2017-07-06T16:13:27.201Z,27.70
2017-07-06T16:15:56.247Z,27.60
2017-07-06T16:18:25.306Z,27.50
2017-07-06T16:20:54.687Z,27.30
2017-07-06T16:23:23.727Z,27.10
2017-07-06T16:25:52.849Z,27.10
2017-07-06T16:28:21.965Z,27.00
2017-07-06T16:30:51.071Z,26.90
2017-07-06T16:33:21.472Z,26.90
2017-07-06T16:35:50.522Z,26.90
2017-07-06T16:38:19.562Z,26.90
2017-07-06T16:40:48.726Z,27.00
2017-07-06T16:43:17.882Z,27.00
2017-07-06T16:45:46.916Z,27.00
2017-07-06T16:48:16.209Z,27.10
2017-07-06T16:50:51.687Z,27.00
2017-07-06T16:53:20.657Z,26.90
2017-07-06T16:55:49.736Z,26.90
2017-07-06T16:58:18.999Z,26.90
2017-07-06T17:00:48.204Z,26.80
2017-07-06T17:03:17.390Z,26.60
2017-07-06T17:05:46.732Z,26.40
2017-07-06T17:08:16.504Z,26.30
2017-07-06T17:10:45.531Z,26.30
2017-07-06T17:13:14.592Z,26.20
2017-07-06T17:15:43.741Z,26.00
2017-07-06T17:18:12.745Z,26.00
2017-07-06T17:20:41.740Z,26.10
2017-07-06T17:23:10.822Z,26.00
2017-07-06T17:25:39.869Z,25.80
2017-07-06T17:28:08.935Z,25.80
2017-07-06T17:30:38.055Z,25.70
2017-07-06T17:33:07.103Z,25.70
2017-07-06T17:35:36.134Z,25.70
2017-07-06T17:38:05.848Z,25.60
2017-07-06T17:40:34.909Z,25.40
2017-07-06T17:43:04.049Z,25.10
2017-07-06T17:45:33.449Z,24.80
2017-07-06T17:48:02.468Z,24.60
2017-07-06T17:50:31.471Z,24.50
2017-07-06T17:53:00.830Z,24.50
2017-07-06T17:55:29.858Z,24.50
2017-07-06T17:57:58.953Z,24.50
2017-07-06T18:00:27.974Z,24.30
2017-07-06T18:02:57.039Z,24.30
2017-07-06T18:05:26.190Z,24.20
2017-07-06T18:07:55.216Z,24.00
2017-07-06T18:10:24.263Z,23.90
2017-07-06T18:12:53.302Z,23.70
2017-07-06T18:15:27.876Z,23.90
2017-07-06T18:17:56.938Z,23.90
2017-07-06T18:20:25.986Z,23.80
2017-07-06T18:22:54.942Z,23.80
2017-07-06T18:25:23.971Z,23.80
2017-07-06T18:27:52.994Z,23.80
2017-07-06T18:30:22.077Z,23.90
2017-07-06T18:32:51.156Z,24.10
2017-07-06T18:35:20.255Z,23.90
2017-07-06T18:37:49.422Z,23.50
2017-07-06T18:40:18.511Z,23.10
2017-07-06T18:42:47.620Z,22.80
2017-07-06T18:45:16.717Z,22.50
2017-07-06T18:47:45.715Z,22.30
2017-07-06T18:50:14.752Z,22.10
2017-07-06T18:52:43.814Z,22.00
2017-07-06T18:55:12.760Z,21.90
2017-07-06T18:57:41.777Z,21.90
2017-07-06T19:00:10.813Z,21.70
2017-07-06T19:02:39.898Z,21.70
2017-07-06T19:05:08.944Z,21.80
2017-07-06T19:07:38.058Z,22.00
2017-07-06T19:10:07.102Z,22.00
2017-07-06T19:12:36.131Z,22.00
2017-07-06T19:15:05.209Z,22.10
2017-07-06T19:17:34.581Z,22.10
2017-07-06T19:20:03.729Z,22.00
2017-07-06T19:22:32.747Z,22.00
2017-07-06T19:25:01.814Z,21.90
2017-07-06T19:27:30.953Z,22.00
2017-07-06T19:30:01.171Z,21.90
2017-07-06T19:32:30.194Z,21.90
2017-07-06T19:34:59.230Z,21.90
2017-07-06T19:37:28.325Z,21.80
2017-07-06T19:39:57.408Z,21.80
2017-07-06T19:42:26.506Z,21.90
2017-07-06T19:44:55.574Z,21.70
2017-07-06T19:47:24.664Z,21.60
2017-07-06T19:49:53.678Z,21.60
2017-07-06T19:52:22.752Z,21.50
2017-07-06T19:54:51.757Z,21.50
2017-07-06T19:57:20.865Z,21.30
2017-07-06T19:59:49.976Z,21.20
2017-07-06T20:02:18.986Z,21.20
2017-07-06T20:07:47.310Z,20.90
2017-07-06T20:10:16.342Z,20.80
2017-07-06T20:13:15.534Z,20.70
2017-07-06T20:15:44.550Z,20.60
2017-07-06T20:18:13.579Z,20.70
2017-07-06T20:20:42.617Z,20.60
2017-07-06T20:23:11.666Z,20.60
2017-07-06T20:25:40.699Z,20.60
2017-07-06T20:28:09.893Z,20.60
2017-07-06T20:30:39.062Z,20.60
2017-07-06T20:33:08.419Z,20.60
2017-07-06T20:35:37.601Z,20.60
2017-07-06T20:38:06.601Z,20.60
2017-07-06T20:40:35.629Z,20.70
2017-07-06T20:43:04.666Z,20.60
2017-07-06T20:45:33.669Z,20.60
2017-07-06T20:48:02.680Z,20.60
2017-07-06T20:50:31.710Z,20.60
2017-07-06T20:53:00.732Z,20.50
2017-07-06T20:55:29.811Z,20.50
2017-07-06T20:57:58.926Z,20.50
2017-07-06T21:00:28.010Z,20.40
2017-07-06T21:02:57.058Z,20.40
2017-07-06T21:05:26.078Z,20.40
2017-07-06T21:07:55.048Z,20.40
2017-07-06T21:10:24.019Z,20.40
2017-07-06T21:12:53.071Z,20.50
2017-07-06T21:15:22.077Z,20.50
2017-07-06T21:17:51.266Z,20.40
2017-07-06T21:20:20.357Z,20.50
2017-07-06T21:22:49.472Z,20.50
2017-07-06T21:25:18.543Z,20.50
2017-07-06T21:27:47.532Z,20.50
2017-07-06T21:30:16.506Z,20.50
2017-07-06T21:32:45.561Z,20.50
2017-07-06T21:35:14.634Z,20.50
2017-07-06T21:37:43.658Z,20.60
2017-07-06T21:40:12.655Z,20.60
2017-07-06T21:42:41.663Z,20.60
2017-07-06T21:45:10.673Z,20.50
2017-07-06T21:47:39.701Z,20.50
2017-07-06T21:50:08.744Z,20.50
2017-07-06T21:52:37.766Z,20.50
2017-07-06T22:38:47.149Z,20.60
2017-07-06T22:41:16.127Z,20.00
2017-07-06T22:43:45.093Z,20.00
2017-07-06T22:46:14.097Z,19.90
2017-07-06T22:48:43.089Z,19.90
2017-07-06T22:51:12.049Z,20.00
2017-07-06T22:53:41.073Z,19.90
2017-07-06T22:56:10.064Z,19.90
2017-07-06T22:58:39.345Z,19.80
2017-07-06T23:01:08.399Z,19.80
2017-07-06T23:03:37.358Z,19.70
2017-07-06T23:06:06.340Z,19.70
2017-07-06T23:08:35.329Z,19.70
2017-07-06T23:11:04.296Z,19.60
2017-07-06T23:13:33.296Z,19.70
2017-07-06T23:16:02.264Z,19.60
2017-07-06T23:18:31.241Z,19.70
2017-07-06T23:21:00.190Z,19.80
2017-07-06T23:23:29.498Z,19.80
2017-07-06T23:25:58.460Z,19.80
2017-07-06T23:28:27.409Z,19.90
2017-07-06T23:32:15.733Z,19.90
2017-07-06T23:34:44.685Z,19.90
2017-07-06T23:37:13.661Z,19.90
2017-07-06T23:39:42.638Z,20.00
2017-07-06T23:42:11.626Z,19.90
2017-07-06T23:44:40.621Z,19.80
2017-07-06T23:47:09.603Z,19.90
2017-07-06T23:49:38.619Z,19.80
2017-07-06T23:52:10.536Z,19.80
2017-07-06T23:54:39.498Z,19.80
2017-07-06T23:57:08.432Z,19.70
2017-07-06T23:59:37.474Z,19.60
